MSC Leanne — 3EXH3 — position and weather

sailwx.info

Track history (hours):
 
Tides and Currents Weather Stations Pressure Air Temp Water Temp Dewpoint Dewpoint Depression Visibility Wind Speed Wind Dir Waves Ship Positions

MSC Leanne

Last reported at 2014-Nov-26 13:33 UTC. Time now 2014-Dec-22 07:02 UTC.
Position N 40°26' W 073°49'.
Warning: this ship's position is 25 days out of date.

Length 294 m; draft 9.5 m.

Type: Ship (hazmat cat A). MMSI: 357723000.

Date/timePositionNaut miles runAvg speedWind from/ knotsBaromVisibWave heightAir tempDewpointWater temp
2014-Nov-26 13:33N 40°26' W 073°49'10 9.9
2014-Nov-26 12:34N 40°31' W 074°00'9 9.0
2014-Nov-26 11:33N 40°39' W 074°07'3 3.1
2014-Nov-26 10:33N 40°41' W 074°09'0 0.0
2014-Nov-26 09:32N 40°41' W 074°09'0 0.0
2014-Nov-26 08:32N 40°41' W 074°09'0 0.0
2014-Nov-26 07:32N 40°41' W 074°09'0 0.0
2014-Nov-26 06:32N 40°41' W 074°09'0 0.0
2014-Nov-26 05:29N 40°41' W 074°09'0 0.0
2014-Nov-26 04:32N 40°41' W 074°09'0 0.0
2014-Nov-26 03:32N 40°41' W 074°09'0 0.0
2014-Nov-26 02:29N 40°41' W 074°09'0 0.0
2014-Nov-26 01:32N 40°41' W 074°09'0 0.0
2014-Nov-26 00:32N 40°41' W 074°09'0 0.0
2014-Nov-25 23:32N 40°41' W 074°09'0 0.0
2014-Nov-25 22:32N 40°41' W 074°09'0 0.0
2014-Nov-25 21:32N 40°41' W 074°09'0 0.0
2014-Nov-25 20:32N 40°41' W 074°09'0 0.0
2014-Nov-25 19:32N 40°41' W 074°09'0 0.0
2014-Nov-25 18:32N 40°41' W 074°09'0 0.0
2014-Nov-25 17:32N 40°41' W 074°09'1 1.3
2014-Nov-25 16:34N 40°40' W 074°08'4 3.9
2014-Nov-25 15:33N 40°39' W 074°04'1211.6
2014-Nov-25 14:33N 40°29' W 073°55'7 7.3
2014-Nov-25 13:33N 40°25' W 073°47'8 8.0
2014-Nov-25 12:34N 40°17' W 073°45'10 9.6
2014-Nov-25 11:33N 40°07' W 073°44'10 9.7
2014-Nov-25 10:29N 39°57' W 073°43'1212.6
2014-Nov-25 09:32N 39°45' W 073°42'1414.1
2014-Nov-25 08:34N 39°32' W 073°47'1413.8
2014-Nov-25 07:33N 39°20' W 073°56'3014.0
2014-Nov-25 05:23N 38°56' W 074°21'1214.1
2014-Nov-25 04:34N 38°47' W 074°31'13 1.3
2014-Nov-24 18:20N 38°46' W 074°48'3411.0
2014-Nov-24 15:16N 39°11' W 075°17'1014.4
2014-Nov-24 14:33N 39°19' W 075°24'1313.3
2014-Nov-24 13:33N 39°31' W 075°33'1212.3
2014-Nov-24 12:33N 39°43' W 075°30'1211.9
2014-Nov-24 11:33N 39°51' W 075°19'9 1.0
2014-Nov-24 02:31N 39°54' W 075°08'0 0.0
2014-Nov-23 23:33N 39°54' W 075°08'11 7.4
2014-Nov-23 22:03N 39°50' W 075°21'6 9.9
2014-Nov-23 21:28N 39°47' W 075°28'1011.0
2014-Nov-23 20:33N 39°38' W 075°34'1010.4
2014-Nov-23 19:33N 39°28' W 075°34'1312.8
2014-Nov-23 18:33N 39°18' W 075°23'  
Track history (hours):
 
Tides and Currents Weather Stations Pressure Air Temp Water Temp Dewpoint Dewpoint Depression Visibility Wind Speed Wind Dir Waves Ship Positions

MSC Leanne

Last reported at 2014-Nov-26 13:33 UTC. Time now 2014-Dec-22 07:02 UTC.
Position N 40°26' W 073°49'.
Warning: this ship's position is 25 days out of date.

Length 294 m; draft 9.5 m.

Type: Ship (hazmat cat A). MMSI: 357723000.

Date/timePositionNaut miles runAvg speedWind from/ knotsBaromVisibWave heightAir tempDewpointWater temp
2014-Nov-26 13:33N 40°26' W 073°49'10 9.9
2014-Nov-26 12:34N 40°31' W 074°00'9 9.0
2014-Nov-26 11:33N 40°39' W 074°07'3 3.1
2014-Nov-26 10:33N 40°41' W 074°09'0 0.0
2014-Nov-26 09:32N 40°41' W 074°09'0 0.0
2014-Nov-26 08:32N 40°41' W 074°09'0 0.0
2014-Nov-26 07:32N 40°41' W 074°09'0 0.0
2014-Nov-26 06:32N 40°41' W 074°09'0 0.0
2014-Nov-26 05:29N 40°41' W 074°09'0 0.0
2014-Nov-26 04:32N 40°41' W 074°09'0 0.0
2014-Nov-26 03:32N 40°41' W 074°09'0 0.0
2014-Nov-26 02:29N 40°41' W 074°09'0 0.0
2014-Nov-26 01:32N 40°41' W 074°09'0 0.0
2014-Nov-26 00:32N 40°41' W 074°09'0 0.0
2014-Nov-25 23:32N 40°41' W 074°09'0 0.0
2014-Nov-25 22:32N 40°41' W 074°09'0 0.0
2014-Nov-25 21:32N 40°41' W 074°09'0 0.0
2014-Nov-25 20:32N 40°41' W 074°09'0 0.0
2014-Nov-25 19:32N 40°41' W 074°09'0 0.0
2014-Nov-25 18:32N 40°41' W 074°09'0 0.0
2014-Nov-25 17:32N 40°41' W 074°09'1 1.3
2014-Nov-25 16:34N 40°40' W 074°08'4 3.9
2014-Nov-25 15:33N 40°39' W 074°04'1211.6
2014-Nov-25 14:33N 40°29' W 073°55'7 7.3
2014-Nov-25 13:33N 40°25' W 073°47'8 8.0
2014-Nov-25 12:34N 40°17' W 073°45'10 9.6
2014-Nov-25 11:33N 40°07' W 073°44'10 9.7
2014-Nov-25 10:29N 39°57' W 073°43'1212.6
2014-Nov-25 09:32N 39°45' W 073°42'1414.1
2014-Nov-25 08:34N 39°32' W 073°47'1413.8
2014-Nov-25 07:33N 39°20' W 073°56'3014.0
2014-Nov-25 05:23N 38°56' W 074°21'1214.1
2014-Nov-25 04:34N 38°47' W 074°31'13 1.3
2014-Nov-24 18:20N 38°46' W 074°48'3411.0
2014-Nov-24 15:16N 39°11' W 075°17'1014.4
2014-Nov-24 14:33N 39°19' W 075°24'1313.3
2014-Nov-24 13:33N 39°31' W 075°33'1212.3
2014-Nov-24 12:33N 39°43' W 075°30'1211.9
2014-Nov-24 11:33N 39°51' W 075°19'9 1.0
2014-Nov-24 02:31N 39°54' W 075°08'0 0.0
2014-Nov-23 23:33N 39°54' W 075°08'11 7.4
2014-Nov-23 22:03N 39°50' W 075°21'6 9.9
2014-Nov-23 21:28N 39°47' W 075°28'1011.0
2014-Nov-23 20:33N 39°38' W 075°34'1010.4
2014-Nov-23 19:33N 39°28' W 075°34'1312.8
2014-Nov-23 18:33N 39°18' W 075°23'  

Dump ship's entire track history